createdAt,value
2023-11-14T00:01:16.810Z,99307.31
2023-11-14T00:03:43.313Z,99296.88
2023-11-14T00:06:09.915Z,99293.13
2023-11-14T00:08:36.392Z,99304.81
2023-11-14T00:11:06.636Z,99315.69
2023-11-14T00:13:34.645Z,99297.94
2023-11-14T00:16:01.568Z,99298.13
2023-11-14T00:18:28.244Z,99315.25
2023-11-14T00:20:57.270Z,99305.59
2023-11-14T00:23:23.956Z,99312.31
2023-11-14T00:25:50.479Z,99309.47
2023-11-14T00:28:17.433Z,99305.16
2023-11-14T00:30:44.769Z,99307.41
2023-11-14T00:33:11.408Z,99295.09
2023-11-14T00:35:38.098Z,99299.41
2023-11-14T00:38:05.503Z,99300.88
2023-11-14T00:40:32.082Z,99294.16
2023-11-14T00:42:58.496Z,99290.22
2023-11-14T00:45:27.081Z,99288.16
2023-11-14T00:47:53.620Z,99289.06
2023-11-14T00:50:20.448Z,99277.94
2023-11-14T00:52:47.885Z,99294.56
2023-11-14T00:55:14.940Z,99286.59
2023-11-14T00:57:42.262Z,99281.28
2023-11-14T01:00:11.787Z,99281.59
2023-11-14T01:02:40.373Z,99281.16
2023-11-14T01:05:07.338Z,99296.47
2023-11-14T01:07:33.986Z,99279.41
2023-11-14T01:10:00.568Z,99284.81
2023-11-14T01:12:27.316Z,99281.59
2023-11-14T01:14:53.856Z,99277.44
2023-11-14T01:17:21.714Z,99284.81
2023-11-14T01:19:51.201Z,99281.16
2023-11-14T01:22:19.025Z,99284.97
2023-11-14T01:24:45.908Z,99273.78
2023-11-14T01:27:12.345Z,99280.66
2023-11-14T01:29:39.111Z,99277.31
2023-11-14T01:32:07.478Z,99276.97
2023-11-14T01:34:35.547Z,99270.72
2023-11-14T01:37:02.019Z,99277.00
2023-11-14T01:39:30.195Z,99274.28
2023-11-14T01:41:56.760Z,99262.13
2023-11-14T01:44:23.184Z,99279.88
2023-11-14T01:46:50.173Z,99276.81
2023-11-14T01:49:17.075Z,99288.34
2023-11-14T01:51:45.379Z,99288.19
2023-11-14T01:54:13.880Z,99309.47
2023-11-14T01:56:42.411Z,99283.09
2023-11-14T01:59:09.726Z,99286.59
2023-11-14T02:01:36.672Z,99289.97
2023-11-14T02:04:13.776Z,99290.75
2023-11-14T02:06:40.370Z,99286.94
2023-11-14T02:09:08.669Z,99289.69
2023-11-14T02:11:35.767Z,99306.78
2023-11-14T02:14:02.452Z,99300.22
2023-11-14T02:16:48.324Z,99301.69
2023-11-14T02:19:15.429Z,99302.97
2023-11-14T02:21:42.917Z,99299.78
2023-11-14T02:24:16.775Z,99310.66
2023-11-14T02:26:46.116Z,99304.84
2023-11-14T02:29:17.772Z,99306.31
2023-11-14T02:31:45.056Z,99312.38
2023-11-14T02:34:11.781Z,99297.03
2023-11-14T02:36:41.435Z,99314.75
2023-11-14T02:39:11.966Z,99322.78
2023-11-14T02:41:38.482Z,99326.44
2023-11-14T02:44:05.395Z,99297.72
2023-11-14T02:46:32.154Z,99300.66
2023-11-14T02:49:19.153Z,99297.16
2023-11-14T02:51:45.648Z,99310.69
2023-11-14T02:54:13.527Z,99319.25
2023-11-14T02:56:40.184Z,99311.69
2023-11-14T02:59:06.710Z,99310.50
2023-11-14T03:01:33.881Z,99309.78
2023-11-14T03:04:00.526Z,99312.69
2023-11-14T03:06:26.985Z,99321.97
2023-11-14T03:08:53.394Z,99312.41
2023-11-14T03:11:20.599Z,99317.53
2023-11-14T03:13:49.183Z,99320.59
2023-11-14T03:16:15.750Z,99321.44
2023-11-14T03:18:42.253Z,99319.00
2023-11-14T03:21:08.807Z,99340.13
2023-11-14T03:23:35.288Z,99330.81
2023-11-14T03:26:03.200Z,99332.59
2023-11-14T03:28:29.712Z,99331.78
2023-11-14T03:30:57.117Z,99322.56
2023-11-14T03:33:24.114Z,99338.88
2023-11-14T03:35:50.636Z,99328.31
2023-11-14T03:38:17.297Z,99335.97
2023-11-14T03:40:44.860Z,99339.97
2023-11-14T03:43:11.372Z,99338.88
2023-11-14T03:45:37.850Z,99342.81
2023-11-14T03:48:04.680Z,99341.78
2023-11-14T03:50:31.120Z,99338.34
2023-11-14T03:52:57.590Z,99352.34
2023-11-14T03:55:24.873Z,99341.00
2023-11-14T03:57:51.442Z,99346.31
2023-11-14T04:00:18.221Z,99344.88
2023-11-14T04:02:45.079Z,99348.03
2023-11-14T04:05:11.720Z,99350.34
2023-11-14T04:07:38.513Z,99358.69
2023-11-14T04:10:08.171Z,99351.03
2023-11-14T04:12:35.049Z,99352.06
2023-11-14T04:15:02.155Z,99357.88
2023-11-14T04:17:28.764Z,99371.72
2023-11-14T04:19:55.508Z,99360.19
2023-11-14T04:22:21.997Z,99359.53
2023-11-14T04:24:48.474Z,99360.75
2023-11-14T04:27:15.117Z,99363.56
2023-11-14T04:29:41.643Z,99363.56
2023-11-14T04:32:08.215Z,99365.00
2023-11-14T04:34:35.572Z,99356.16
2023-11-14T04:37:02.123Z,99354.03
2023-11-14T04:39:28.545Z,99355.97
2023-11-14T04:41:54.990Z,99350.59
2023-11-14T04:44:21.577Z,99365.53
2023-11-14T04:46:50.762Z,99367.63
2023-11-14T04:49:17.483Z,99376.09
2023-11-14T04:51:44.059Z,99386.25
2023-11-14T04:54:11.766Z,99384.75
2023-11-14T04:56:38.192Z,99386.06
2023-11-14T04:59:04.745Z,99375.09
2023-11-14T05:01:31.434Z,99374.09
2023-11-14T05:03:58.078Z,99380.53
2023-11-14T05:06:24.601Z,99380.06
2023-11-14T05:08:51.959Z,99377.41
2023-11-14T05:11:18.531Z,99361.84
2023-11-14T05:13:45.265Z,99356.78
2023-11-14T05:16:21.754Z,99346.94
2023-11-14T05:18:50.782Z,99362.59
2023-11-14T05:21:17.384Z,99375.50
2023-11-14T05:23:43.940Z,99360.22
2023-11-14T05:26:10.450Z,99362.94
2023-11-14T05:28:40.067Z,99364.16
2023-11-14T05:31:06.701Z,99346.97
2023-11-14T05:33:33.213Z,99345.34
2023-11-14T05:35:59.634Z,99345.66
2023-11-14T05:38:26.083Z,99345.16
2023-11-14T05:40:52.582Z,99352.41
2023-11-14T05:43:21.035Z,99349.91
2023-11-14T05:45:47.937Z,99343.06
2023-11-14T05:48:17.523Z,99345.56
2023-11-14T05:50:44.217Z,99342.44
2023-11-14T05:53:10.735Z,99332.72
2023-11-14T05:55:37.859Z,99340.75
2023-11-14T05:58:04.376Z,99336.91
2023-11-14T06:00:30.854Z,99334.91
2023-11-14T06:02:57.303Z,99335.72
2023-11-14T06:05:23.860Z,99337.34
2023-11-14T06:07:50.361Z,99357.09
2023-11-14T06:10:17.560Z,99332.66
2023-11-14T06:12:44.520Z,99337.69
2023-11-14T06:15:11.262Z,99343.03
2023-11-14T06:17:37.775Z,99342.50
2023-11-14T06:20:06.375Z,99357.78
2023-11-14T06:22:33.631Z,99350.41
2023-11-14T06:25:04.014Z,99369.72
2023-11-14T06:27:30.882Z,99380.78
2023-11-14T06:29:57.840Z,99364.22
2023-11-14T06:32:25.605Z,99377.22
2023-11-14T06:34:52.830Z,99383.06
2023-11-14T06:37:20.761Z,99383.94
2023-11-14T06:39:48.293Z,99377.13
2023-11-14T06:42:15.309Z,99378.50
2023-11-14T06:44:45.677Z,99390.09
2023-11-14T06:47:13.253Z,99405.56
2023-11-14T06:49:39.820Z,99400.34
2023-11-14T06:52:06.519Z,99419.69
2023-11-14T06:54:32.934Z,99398.91
2023-11-14T06:57:00.761Z,99414.44
2023-11-14T06:59:31.268Z,99402.66
2023-11-14T07:01:58.505Z,99411.47
2023-11-14T07:04:25.045Z,99409.56
2023-11-14T07:06:51.575Z,99407.13
2023-11-14T07:09:20.023Z,99429.00
2023-11-14T07:11:48.520Z,99442.16
2023-11-14T07:14:20.020Z,99429.59
2023-11-14T07:16:47.886Z,99415.81
2023-11-14T07:19:15.387Z,99437.75
2023-11-14T07:21:42.870Z,99432.00
2023-11-14T07:24:09.454Z,99421.00
2023-11-14T07:26:35.859Z,99437.22
2023-11-14T07:29:03.024Z,99427.34
2023-11-14T07:31:29.469Z,99437.91
2023-11-14T07:33:55.918Z,99447.06
2023-11-14T07:36:23.490Z,99443.06
2023-11-14T07:38:49.894Z,99432.66
2023-11-14T07:41:16.913Z,99442.94
2023-11-14T07:43:43.712Z,99455.81
2023-11-14T07:46:10.449Z,99453.75
2023-11-14T07:48:37.036Z,99447.34
2023-11-14T07:51:03.936Z,99451.22
2023-11-14T07:53:30.725Z,99461.25
2023-11-14T07:55:57.344Z,99455.91
2023-11-14T07:58:26.789Z,99457.19
2023-11-14T08:00:53.623Z,99459.63
2023-11-14T08:03:20.388Z,99469.75
2023-11-14T08:08:15.626Z,99469.44
2023-11-14T08:10:42.723Z,99455.19
2023-11-14T08:13:09.253Z,99459.84
2023-11-14T08:15:35.717Z,99471.38
2023-11-14T08:18:02.241Z,99482.03
2023-11-14T08:20:29.383Z,99475.44
2023-11-14T08:22:56.105Z,99474.72
2023-11-14T08:25:22.582Z,99470.41
2023-11-14T08:27:50.096Z,99480.06
2023-11-14T08:30:16.801Z,99483.47
2023-11-14T08:32:45.550Z,99475.63
2023-11-14T08:35:12.963Z,99476.81
2023-11-14T08:37:39.477Z,99450.09
2023-11-14T08:40:07.184Z,99469.13
2023-11-14T08:42:35.504Z,99467.28
2023-11-14T08:45:02.469Z,99476.06
2023-11-14T08:47:29.416Z,99477.19
2023-11-14T08:49:56.493Z,99485.03
2023-11-14T08:52:24.004Z,99484.84
2023-11-14T08:54:51.055Z,99480.19
2023-11-14T08:57:17.654Z,99484.22
2023-11-14T08:59:44.143Z,99493.72
2023-11-14T09:02:10.715Z,99498.91
2023-11-14T09:04:37.158Z,99518.03
2023-11-14T09:07:03.692Z,99505.16
2023-11-14T09:09:30.094Z,99510.00
2023-11-14T09:11:56.511Z,99526.91
2023-11-14T09:14:22.993Z,99515.94
2023-11-14T09:16:49.759Z,99519.78
2023-11-14T09:19:16.510Z,99539.78
2023-11-14T09:21:43.197Z,99515.50
2023-11-14T09:24:11.500Z,99538.34
2023-11-14T09:26:38.899Z,99543.34
2023-11-14T09:29:05.867Z,99539.53
2023-11-14T09:31:32.485Z,99526.13
2023-11-14T09:33:58.917Z,99535.28
2023-11-14T09:36:25.440Z,99531.63
2023-11-14T09:38:52.033Z,99536.94
2023-11-14T09:41:20.223Z,99534.22
2023-11-14T09:43:47.644Z,99544.84
2023-11-14T09:46:14.733Z,99563.53
2023-11-14T09:48:41.284Z,99556.69
2023-11-14T09:51:08.532Z,99555.00
2023-11-14T09:53:36.285Z,99552.00
2023-11-14T09:56:05.029Z,99540.13
2023-11-14T09:58:31.906Z,99535.69
2023-11-14T10:00:58.404Z,99533.97
2023-11-14T10:03:25.484Z,99517.06
2023-11-14T10:05:52.250Z,99536.50
2023-11-14T10:08:19.410Z,99527.31
2023-11-14T10:11:04.557Z,99543.59
2023-11-14T10:13:31.413Z,99526.47
2023-11-14T10:16:18.030Z,99533.69
2023-11-14T10:18:46.166Z,99536.00
2023-11-14T10:21:34.814Z,99547.59
2023-11-14T10:24:01.873Z,99553.69
2023-11-14T10:26:29.428Z,99546.38
2023-11-14T10:28:59.322Z,99569.59
2023-11-14T10:31:38.087Z,99547.84
2023-11-14T10:34:09.151Z,99541.47
2023-11-14T10:36:47.635Z,99536.47
2023-11-14T10:39:14.645Z,99527.88
2023-11-14T10:41:44.726Z,99540.25
2023-11-14T10:44:14.973Z,99542.84
2023-11-14T10:46:59.854Z,99532.44
2023-11-14T10:49:27.480Z,99539.81
2023-11-14T10:51:55.133Z,99541.03
2023-11-14T10:54:21.973Z,99541.47
2023-11-14T10:56:55.682Z,99537.44
2023-11-14T10:59:26.208Z,99550.25
2023-11-14T11:01:53.685Z,99553.53
2023-11-14T11:04:20.933Z,99544.13
2023-11-14T11:06:48.688Z,99527.75
2023-11-14T11:09:16.886Z,99531.09
2023-11-14T11:11:53.179Z,99523.91
2023-11-14T11:14:21.432Z,99515.72
2023-11-14T11:16:52.951Z,99523.84
2023-11-14T11:19:22.403Z,99525.91
2023-11-14T11:22:11.788Z,99518.56
2023-11-14T11:25:17.008Z,99524.69
2023-11-14T11:27:43.690Z,99513.00
2023-11-14T11:30:14.299Z,99528.19
2023-11-14T11:32:42.104Z,99524.53
2023-11-14T11:35:19.609Z,99525.22
2023-11-14T11:37:48.132Z,99523.16
2023-11-14T11:40:15.491Z,99533.84
2023-11-14T11:42:43.369Z,99516.69
2023-11-14T11:45:29.020Z,99521.38
2023-11-14T11:47:58.800Z,99507.59
2023-11-14T11:50:27.855Z,99505.56
2023-11-14T11:53:01.084Z,99493.69
2023-11-14T11:55:28.640Z,99492.91
2023-11-14T11:57:59.901Z,99501.16
2023-11-14T12:00:26.502Z,99504.69
2023-11-14T12:02:53.803Z,99511.91
2023-11-14T12:05:21.268Z,99511.41
2023-11-14T12:07:48.165Z,99511.88
2023-11-14T12:10:16.319Z,99504.59
2023-11-14T12:12:43.560Z,99503.81
2023-11-14T12:15:16.526Z,99509.00
2023-11-14T12:17:47.568Z,99515.28
2023-11-14T12:20:14.372Z,99504.41
2023-11-14T12:22:41.364Z,99512.75
2023-11-14T12:25:08.091Z,99515.97
2023-11-14T12:27:35.368Z,99513.91
2023-11-14T12:30:10.317Z,99520.00
2023-11-14T12:32:38.029Z,99501.72
2023-11-14T12:35:05.118Z,99500.78
2023-11-14T12:37:32.395Z,99497.09
2023-11-14T12:40:13.406Z,99501.88
2023-11-14T12:42:40.866Z,99499.19
2023-11-14T12:45:09.500Z,99503.50
2023-11-14T12:47:40.203Z,99505.56
2023-11-14T12:50:12.208Z,99503.97
2023-11-14T12:52:42.701Z,99505.56
2023-11-14T12:55:09.297Z,99509.69
2023-11-14T12:57:35.817Z,99506.44
2023-11-14T13:00:05.060Z,99508.53
2023-11-14T13:02:32.279Z,99503.97
2023-11-14T13:04:58.797Z,99505.25
2023-11-14T13:07:25.293Z,99504.13
2023-11-14T13:09:52.318Z,99500.28
2023-11-14T13:12:25.305Z,99502.31
2023-11-14T13:14:52.307Z,99517.81
2023-11-14T13:17:19.821Z,99507.91
2023-11-14T13:19:46.605Z,99509.78
2023-11-14T13:22:15.572Z,99510.59
2023-11-14T13:24:44.109Z,99507.16
2023-11-14T13:27:10.637Z,99499.81
2023-11-14T13:29:37.753Z,99496.94
2023-11-14T13:32:04.627Z,99513.88
2023-11-14T13:34:36.282Z,99503.31
2023-11-14T13:37:03.326Z,99508.75
2023-11-14T13:39:29.812Z,99503.16
2023-11-14T13:41:56.245Z,99502.69
2023-11-14T13:44:23.095Z,99505.75
2023-11-14T13:46:49.879Z,99503.50
2023-11-14T13:49:16.385Z,99508.81
2023-11-14T13:51:42.928Z,99500.66
2023-11-14T13:54:10.908Z,99517.13
2023-11-14T13:56:38.971Z,99499.25
2023-11-14T13:59:05.625Z,99493.66
2023-11-14T14:01:33.981Z,99495.72
2023-11-14T14:04:01.984Z,99497.63
2023-11-14T14:06:28.497Z,99484.69
2023-11-14T14:08:54.930Z,99493.16
2023-11-14T14:11:22.127Z,99499.06
2023-11-14T14:13:48.715Z,99488.97
2023-11-14T14:16:15.865Z,99491.06
2023-11-14T14:18:46.010Z,99491.06
2023-11-14T14:21:15.220Z,99504.25
2023-11-14T14:23:41.775Z,99492.88
2023-11-14T14:26:10.419Z,99490.75
2023-11-14T14:28:40.268Z,99473.59
2023-11-14T14:31:09.023Z,99475.53
2023-11-14T14:33:36.411Z,99481.28
2023-11-14T14:36:03.979Z,99479.19
2023-11-14T14:38:30.721Z,99468.97
2023-11-14T14:40:57.220Z,99468.66
2023-11-14T14:43:30.173Z,99469.13
2023-11-14T14:45:57.692Z,99480.63
2023-11-14T14:48:24.388Z,99474.50
2023-11-14T14:50:54.633Z,99479.13
2023-11-14T14:53:23.851Z,99479.25
2023-11-14T14:55:50.801Z,99479.13
2023-11-14T14:58:20.110Z,99479.25
2023-11-14T15:00:46.973Z,99485.03
2023-11-14T15:03:21.931Z,99480.47
2023-11-14T15:05:52.625Z,99478.75
2023-11-14T15:08:19.822Z,99485.31
2023-11-14T15:10:46.933Z,99486.19
2023-11-14T15:13:13.475Z,99486.41
2023-11-14T15:15:44.825Z,99486.94
2023-11-14T15:18:11.670Z,99500.53
2023-11-14T15:20:38.425Z,99501.34
2023-11-14T15:23:05.243Z,99487.09
2023-11-14T15:25:34.472Z,99489.66
2023-11-14T15:28:00.945Z,99496.03
2023-11-14T15:30:27.443Z,99484.00
2023-11-14T15:32:54.067Z,99493.91
2023-11-14T15:35:20.757Z,99488.00
2023-11-14T15:37:49.765Z,99497.94
2023-11-14T15:40:17.584Z,99490.72
2023-11-14T15:42:44.870Z,99493.59
2023-11-14T15:45:11.305Z,99498.25
2023-11-14T15:47:37.842Z,99497.94
2023-11-14T15:50:07.101Z,99509.75
2023-11-14T15:52:33.717Z,99500.72
2023-11-14T15:55:00.654Z,99510.38
2023-11-14T15:57:29.204Z,99508.22
2023-11-14T15:59:55.689Z,99510.31
2023-11-14T16:02:22.675Z,99513.22
2023-11-14T16:04:49.793Z,99501.16
2023-11-14T16:07:16.644Z,99500.19
2023-11-14T16:09:43.222Z,99498.13
2023-11-14T16:12:09.793Z,99494.03
2023-11-14T16:14:36.961Z,99494.00
2023-11-14T16:17:04.847Z,99492.50
2023-11-14T16:19:37.843Z,99500.09
2023-11-14T16:22:05.609Z,99498.31
2023-11-14T16:24:32.316Z,99493.31
2023-11-14T16:26:59.663Z,99500.19
2023-11-14T16:29:26.481Z,99488.47
2023-11-14T16:31:52.952Z,99487.31
2023-11-14T16:34:19.450Z,99493.84
2023-11-14T16:36:46.043Z,99488.25
2023-11-14T16:39:12.595Z,99483.69
2023-11-14T16:41:39.335Z,99495.00
2023-11-14T16:44:06.066Z,99485.03
2023-11-14T16:46:32.656Z,99490.66
2023-11-14T16:48:59.235Z,99494.44
2023-11-14T16:51:28.675Z,99497.06
2023-11-14T16:53:55.237Z,99495.97
2023-11-14T16:56:22.168Z,99491.63
2023-11-14T16:58:49.305Z,99491.75
2023-11-14T17:01:16.277Z,99485.44
2023-11-14T17:03:43.018Z,99494.41
2023-11-14T17:06:09.757Z,99486.69
2023-11-14T17:08:36.507Z,99487.28
2023-11-14T17:11:03.325Z,99488.66
2023-11-14T17:13:30.280Z,99485.88
2023-11-14T17:15:58.414Z,99484.38
2023-11-14T17:18:25.105Z,99486.31
2023-11-14T17:20:52.045Z,99471.97
2023-11-14T17:23:19.618Z,99481.97
2023-11-14T17:25:47.559Z,99475.25
2023-11-14T17:28:15.442Z,99470.47
2023-11-14T17:30:42.500Z,99470.00
2023-11-14T17:33:09.174Z,99483.09
2023-11-14T17:35:35.914Z,99483.91
2023-11-14T17:38:03.335Z,99474.09
2023-11-14T17:40:30.916Z,99473.88
2023-11-14T17:42:57.373Z,99473.03
2023-11-14T17:45:24.257Z,99469.56
2023-11-14T17:47:50.733Z,99468.50
2023-11-14T17:50:17.566Z,99475.06
2023-11-14T17:52:44.128Z,99460.03
2023-11-14T17:55:13.733Z,99454.28
2023-11-14T17:57:41.728Z,99455.50
2023-11-14T18:00:09.417Z,99449.75
2023-11-14T18:02:36.780Z,99454.97
2023-11-14T18:05:03.696Z,99449.09
2023-11-14T18:07:30.268Z,99449.94
2023-11-14T18:09:56.757Z,99450.16
2023-11-14T18:12:24.648Z,99442.50
2023-11-14T18:14:51.388Z,99447.53
2023-11-14T18:17:18.141Z,99442.81
2023-11-14T18:19:45.765Z,99436.31
2023-11-14T18:22:12.282Z,99443.47
2023-11-14T18:24:38.699Z,99440.16
2023-11-14T18:27:05.330Z,99439.47
2023-11-14T18:29:32.110Z,99439.28
2023-11-14T18:31:58.600Z,99439.28
2023-11-14T18:34:25.056Z,99443.84
2023-11-14T18:36:52.510Z,99435.31
2023-11-14T18:39:19.058Z,99437.97
2023-11-14T18:41:45.668Z,99431.41
2023-11-14T18:44:14.514Z,99436.47
2023-11-14T18:46:43.122Z,99443.91
2023-11-14T18:49:09.810Z,99438.56
2023-11-14T18:51:36.328Z,99439.31
2023-11-14T18:54:04.858Z,99443.81
2023-11-14T18:56:31.419Z,99445.75
2023-11-14T18:58:57.855Z,99439.81
2023-11-14T19:01:24.621Z,99447.34
2023-11-14T19:03:51.550Z,99449.78
2023-11-14T19:06:18.498Z,99449.09
2023-11-14T19:08:45.397Z,99455.63
2023-11-14T19:11:11.968Z,99447.09
2023-11-14T19:13:38.524Z,99458.75
2023-11-14T19:16:05.433Z,99455.63
2023-11-14T19:18:31.940Z,99451.31
2023-11-14T19:21:26.204Z,99456.53
2023-11-14T19:23:46.707Z,99466.69
2023-11-14T19:26:13.375Z,99453.13
2023-11-14T19:28:40.994Z,99462.34
2023-11-14T19:31:07.525Z,99462.56
2023-11-14T19:33:33.982Z,99469.09
2023-11-14T19:36:00.685Z,99463.16
2023-11-14T19:38:27.456Z,99459.75
2023-11-14T19:40:54.044Z,99458.84
2023-11-14T19:43:20.793Z,99480.25
2023-11-14T19:45:47.449Z,99464.06
2023-11-14T19:48:14.614Z,99465.25
2023-11-14T19:50:45.938Z,99463.38
2023-11-14T19:53:15.779Z,99468.25
2023-11-14T19:55:42.341Z,99459.22
2023-11-14T19:58:08.838Z,99469.97
2023-11-14T20:00:35.339Z,99467.06
2023-11-14T20:03:04.774Z,99461.13
2023-11-14T20:05:33.604Z,99462.63
2023-11-14T20:08:01.975Z,99463.47
2023-11-14T20:10:28.821Z,99462.34
2023-11-14T20:12:56.006Z,99455.56
2023-11-14T20:15:22.818Z,99463.84
2023-11-14T20:17:49.334Z,99465.63
2023-11-14T20:20:16.251Z,99463.72
2023-11-14T20:22:42.852Z,99470.75
2023-11-14T20:25:09.813Z,99472.66
2023-11-14T20:27:36.333Z,99465.03
2023-11-14T20:30:05.299Z,99465.03
2023-11-14T20:32:33.015Z,99478.00
2023-11-14T20:34:59.534Z,99477.19
2023-11-14T20:37:25.996Z,99475.38
2023-11-14T20:39:53.098Z,99483.59
2023-11-14T20:42:23.091Z,99484.09
2023-11-14T20:44:49.606Z,99484.31
2023-11-14T20:47:16.478Z,99486.00
2023-11-14T20:49:43.026Z,99495.63
2023-11-14T20:52:09.682Z,99490.41
2023-11-14T20:54:36.411Z,99491.03
2023-11-14T20:57:03.331Z,99497.03
2023-11-14T20:59:29.843Z,99492.72
2023-11-14T21:01:56.985Z,99493.00
2023-11-14T21:04:23.577Z,99500.84
2023-11-14T21:06:50.450Z,99500.03
2023-11-14T21:09:18.152Z,99494.97
2023-11-14T21:11:45.798Z,99506.19
2023-11-14T21:14:12.585Z,99502.06
2023-11-14T21:16:39.410Z,99497.66
2023-11-14T21:19:06.075Z,99508.06
2023-11-14T21:21:32.649Z,99502.31
2023-11-14T21:23:59.769Z,99509.38
2023-11-14T21:26:28.843Z,99512.50
2023-11-14T21:28:55.342Z,99512.28
2023-11-14T21:31:22.036Z,99506.34
2023-11-14T21:33:50.239Z,99519.00
2023-11-14T21:36:16.867Z,99516.53
2023-11-14T21:38:43.379Z,99526.72
2023-11-14T21:41:10.099Z,99518.09
2023-11-14T21:43:36.684Z,99532.72
2023-11-14T21:46:03.341Z,99539.63
2023-11-14T21:48:29.796Z,99539.94
2023-11-14T21:50:56.788Z,99535.31
2023-11-14T21:53:23.328Z,99543.94
2023-11-14T21:55:50.693Z,99548.72
2023-11-14T21:58:17.213Z,99549.94
2023-11-14T22:00:44.019Z,99551.13
2023-11-14T22:03:10.921Z,99551.13
2023-11-14T22:05:37.528Z,99560.38
2023-11-14T22:08:04.335Z,99557.78
2023-11-14T22:10:31.415Z,99564.34
2023-11-14T22:12:57.934Z,99561.31
2023-11-14T22:15:24.430Z,99576.25
2023-11-14T22:17:51.009Z,99574.63
2023-11-14T22:20:17.763Z,99581.09
2023-11-14T22:22:44.277Z,99584.63
2023-11-14T22:25:10.758Z,99576.41
2023-11-14T22:27:37.503Z,99589.81
2023-11-14T22:30:05.449Z,99599.78
2023-11-14T22:32:33.139Z,99601.63
2023-11-14T22:35:00.937Z,99607.72
2023-11-14T22:37:28.157Z,99613.28
2023-11-14T22:39:54.662Z,99612.47
2023-11-14T22:42:21.169Z,99616.63
2023-11-14T22:44:47.826Z,99613.50
2023-11-14T22:47:15.637Z,99619.56
2023-11-14T22:49:43.175Z,99626.31
2023-11-14T22:52:10.614Z,99639.66
2023-11-14T22:54:37.493Z,99636.88
2023-11-14T22:57:04.602Z,99646.91
2023-11-14T22:59:31.151Z,99647.44
2023-11-14T23:01:57.778Z,99643.75
2023-11-14T23:04:25.423Z,99654.00
2023-11-14T23:06:53.005Z,99663.09
2023-11-14T23:09:20.459Z,99664.88
2023-11-14T23:11:48.474Z,99674.31
2023-11-14T23:14:15.232Z,99680.34
2023-11-14T23:16:43.055Z,99686.25
2023-11-14T23:19:10.145Z,99694.53
2023-11-14T23:21:45.887Z,99699.66
2023-11-14T23:24:21.032Z,99708.25
2023-11-14T23:26:47.855Z,99703.97
2023-11-14T23:29:14.449Z,99721.28
2023-11-14T23:31:41.065Z,99719.88
2023-11-14T23:34:07.514Z,99740.56
2023-11-14T23:36:33.968Z,99735.50
2023-11-14T23:39:00.915Z,99729.34
2023-11-14T23:41:28.725Z,99740.63
2023-11-14T23:43:56.140Z,99735.88
2023-11-14T23:46:23.701Z,99748.41
2023-11-14T23:48:50.989Z,99752.72
2023-11-14T23:51:18.719Z,99759.19
2023-11-14T23:53:45.969Z,99755.41
2023-11-14T23:56:13.596Z,99769.16
2023-11-14T23:58:40.221Z,99775.22
